Time;durP1;ratioP1;P1;durP2;ratioP2;P2;SDS_P1;SDS_P2;PMS_P1;PMS_P2;Temp;Humidity;BMP_temperature;BMP_pressure;BME280_temperature;BME280_humidity;BME280_pressure;Samples;Min_cycle;Max_cycle;Signal;HPM_P1;HPM_P2
2023/04/01 00:00:16;;;;;;;22.02;13.80;;;;;;;6.17;100.00;99578.56;5036845;28;20202;-45
2023/04/01 00:02:42;;;;;;;21.48;12.80;;;;;;;6.10;100.00;99587.72;5038620;28;20570;-46
2023/04/01 00:05:10;;;;;;;15.05;10.77;;;;;;;6.07;100.00;99586.97;5040742;28;20306;-46
2023/04/01 00:07:36;;;;;;;16.10;10.80;;;;;;;6.05;100.00;99583.50;5042272;28;20207;-47
2023/04/01 00:10:03;;;;;;;11.73;8.88;;;;;;;5.96;100.00;99587.38;5039315;28;20180;-46
2023/04/01 00:12:29;;;;;;;12.32;8.02;;;;;;;5.88;100.00;99586.78;5036462;28;20279;-46
2023/04/01 00:14:55;;;;;;;12.05;8.05;;;;;;;5.83;100.00;99592.28;5037924;28;20623;-46
2023/04/01 00:17:21;;;;;;;13.10;7.38;;;;;;;5.86;100.00;99597.50;5040183;28;20216;-45
2023/04/01 00:19:47;;;;;;;11.35;7.18;;;;;;;5.81;100.00;99598.59;5042773;28;20262;-47
2023/04/01 00:22:12;;;;;;;11.50;6.18;;;;;;;5.83;100.00;99597.59;5038269;28;20172;-46
2023/04/01 00:24:38;;;;;;;7.63;6.00;;;;;;;5.82;100.00;99593.22;5045013;28;20680;-47
2023/04/01 00:27:04;;;;;;;9.10;5.80;;;;;;;5.80;100.00;99612.81;5035596;28;20212;-46
2023/04/01 00:29:30;;;;;;;9.77;6.10;;;;;;;5.88;100.00;99597.41;5036420;28;20239;-46
2023/04/01 00:31:57;;;;;;;11.20;7.25;;;;;;;5.76;100.00;99596.97;5038593;28;20590;-48
2023/04/01 00:34:23;;;;;;;10.40;6.85;;;;;;;5.70;100.00;99610.47;5040698;28;20175;-46
2023/04/01 00:36:50;;;;;;;7.95;6.72;;;;;;;5.70;100.00;99612.28;5041060;28;20282;-45
2023/04/01 00:39:16;;;;;;;8.30;7.07;;;;;;;5.66;100.00;99613.31;5036485;28;20267;-46
2023/04/01 00:41:42;;;;;;;12.00;7.35;;;;;;;5.72;100.00;99605.97;5043881;28;20187;-46
2023/04/01 00:44:21;;;;;;;11.25;7.03;;;;;;;5.59;100.00;99612.69;5036486;28;20187;-47
2023/04/01 00:46:46;;;;;;;7.25;5.47;;;;;;;5.50;100.00;99613.03;5042139;28;20216;-47
2023/04/01 00:49:13;;;;;;;5.97;5.05;;;;;;;5.50;100.00;99613.88;5036006;28;20202;-47
2023/04/01 00:51:41;;;;;;;8.18;5.00;;;;;;;5.46;100.00;99614.91;5063796;22;20829;-48
2023/04/01 00:54:09;;;;;;;7.75;4.55;;;;;;;5.52;100.00;99622.66;5044888;28;20226;-46
2023/04/01 00:56:49;;;;;;;6.68;4.43;;;;;;;5.52;100.00;99617.34;5048359;28;20195;-49
2023/04/01 00:59:20;;;;;;;5.65;4.97;;;;;;;5.47;100.00;99618.47;5052990;28;20179;-50
2023/04/01 01:01:46;;;;;;;7.45;4.75;;;;;;;5.37;100.00;99612.59;5047899;28;20205;-50
2023/04/01 01:04:25;;;;;;;6.68;4.97;;;;;;;5.32;100.00;99625.19;5053495;28;20551;-47
2023/04/01 01:07:20;;;;;;;10.05;5.15;;;;;;;5.21;100.00;99630.88;5050468;28;20214;-50
2023/04/01 01:10:03;;;;;;;6.90;5.00;;;;;;;5.28;100.00;99615.59;5038812;28;20691;-47
2023/04/01 01:12:57;;;;;;;7.57;4.32;;;;;;;5.11;100.00;99618.84;5043973;28;20265;-49
2023/04/01 01:15:34;;;;;;;8.90;4.97;;;;;;;5.06;100.00;99621.66;5038643;28;20171;-48
2023/04/01 01:18:21;;;;;;;5.07;4.68;;;;;;;5.10;100.00;99622.44;5050241;28;20252;-47
2023/04/01 01:20:53;;;;;;;6.28;4.47;;;;;;;5.03;100.00;99621.78;5040869;28;20224;-49
2023/04/01 01:23:27;;;;;;;7.95;4.90;;;;;;;5.14;100.00;99627.59;5048299;28;20199;-47
2023/04/01 01:26:28;;;;;;;5.32;4.82;;;;;;;4.99;100.00;99632.56;5037694;28;20225;-49
2023/04/01 01:29:23;;;;;;;6.13;4.53;;;;;;;4.94;100.00;99638.91;5048287;28;20207;-48
2023/04/01 01:31:55;;;;;;;6.78;4.30;;;;;;;4.86;100.00;99638.28;5053879;28;20221;-49
2023/04/01 01:34:48;;;;;;;8.25;4.45;;;;;;;4.90;100.00;99639.94;5056925;28;20171;-47
2023/04/01 01:37:17;;;;;;;10.95;4.20;;;;;;;4.87;100.00;99642.66;5045939;28;20199;-49
2023/04/01 01:39:47;;;;;;;7.20;4.80;;;;;;;4.81;100.00;99640.25;5045095;28;20194;-48
2023/04/01 01:42:16;;;;;;;7.95;4.63;;;;;;;4.75;100.00;99653.72;5039432;28;20293;-47
2023/04/01 01:44:45;;;;;;;8.05;4.45;;;;;;;4.71;100.00;99647.63;5064643;28;20248;-48
2023/04/01 01:47:33;;;;;;;7.65;4.55;;;;;;;4.72;100.00;99669.72;5040371;28;20228;-49
2023/04/01 01:50:01;;;;;;;7.53;4.10;;;;;;;4.76;100.00;99644.81;5048401;28;20265;-48
2023/04/01 01:52:29;;;;;;;7.88;3.97;;;;;;;4.72;100.00;99648.47;5057883;28;20191;-48
2023/04/01 01:54:56;;;;;;;4.78;3.63;;;;;;;4.70;100.00;99656.53;5045956;28;20171;-49
2023/04/01 01:57:37;;;;;;;6.63;3.75;;;;;;;4.60;100.00;99656.88;5054191;28;20206;-48
2023/04/01 02:00:13;;;;;;;5.10;3.25;;;;;;;4.53;100.00;99664.16;5032478;28;20172;-49
2023/04/01 02:02:41;;;;;;;6.93;3.17;;;;;;;4.70;100.00;99666.25;5050070;28;20338;-49
2023/04/01 02:05:11;;;;;;;5.80;3.67;;;;;;;4.61;100.00;99677.16;5034401;28;20200;-48
2023/04/01 02:07:39;;;;;;;6.57;3.45;;;;;;;4.59;100.00;99658.66;5057695;28;20214;-48
2023/04/01 02:10:06;;;;;;;6.15;3.22;;;;;;;4.60;100.00;99680.75;5056286;28;20179;-47
2023/04/01 02:12:34;;;;;;;8.00;2.88;;;;;;;4.50;100.00;99685.47;5051701;28;20218;-50
2023/04/01 02:15:09;;;;;;;6.53;2.65;;;;;;;4.50;100.00;99677.50;5035913;28;20183;-47
2023/04/01 02:17:40;;;;;;;3.05;2.33;;;;;;;4.50;100.00;99675.75;5052049;28;20198;-49
2023/04/01 02:20:10;;;;;;;7.35;2.60;;;;;;;4.48;100.00;99690.84;5056142;28;20247;-50
2023/04/01 02:22:44;;;;;;;6.82;3.15;;;;;;;4.42;100.00;99682.19;5054707;28;20194;-48
2023/04/01 02:25:16;;;;;;;2.75;2.28;;;;;;;4.35;100.00;99684.16;5017383;28;20219;-48
2023/04/01 02:27:44;;;;;;;3.20;1.75;;;;;;;4.28;100.00;99715.28;5047844;28;20191;-48
2023/04/01 02:30:12;;;;;;;2.40;1.58;;;;;;;4.33;100.00;99697.47;5049839;28;20525;-48
2023/04/01 02:32:39;;;;;;;4.50;1.63;;;;;;;4.34;100.00;99682.44;5051189;28;20180;-46
2023/04/01 02:35:11;;;;;;;3.13;1.50;;;;;;;4.26;100.00;99716.25;5039632;28;20176;-48
2023/04/01 02:37:38;;;;;;;7.65;1.80;;;;;;;4.29;100.00;99716.19;5048915;28;20304;-49
2023/04/01 02:40:07;;;;;;;5.70;2.05;;;;;;;4.13;100.00;99715.75;5063799;28;20251;-47
2023/04/01 02:42:33;;;;;;;2.30;1.33;;;;;;;4.09;100.00;99746.81;5042521;28;20182;-47
2023/04/01 02:44:59;;;;;;;2.85;1.40;;;;;;;4.09;100.00;99728.25;5043193;28;20295;-48
2023/04/01 02:47:25;;;;;;;3.65;1.30;;;;;;;4.06;100.00;99717.72;5055832;28;20241;-49
2023/04/01 02:49:57;;;;;;;5.78;1.35;;;;;;;4.03;100.00;99738.16;5056016;28;20444;-49
2023/04/01 02:52:23;;;;;;;5.00;1.70;;;;;;;4.04;100.00;99738.09;5045794;28;20213;-48
2023/04/01 02:54:49;;;;;;;4.97;1.40;;;;;;;3.94;100.00;99734.00;5041699;28;20178;-48
2023/04/01 02:57:14;;;;;;;4.60;1.70;;;;;;;4.02;100.00;99737.25;5051996;28;20203;-47
2023/04/01 02:59:40;;;;;;;5.13;1.60;;;;;;;4.03;100.00;99732.84;5060606;28;20215;-47
2023/04/01 03:02:06;;;;;;;3.58;1.70;;;;;;;3.86;100.00;99749.25;5042611;28;20218;-48
2023/04/01 03:04:32;;;;;;;3.80;1.90;;;;;;;3.85;100.00;99748.38;5047855;28;20650;-48
2023/04/01 03:06:58;;;;;;;5.57;2.05;;;;;;;3.87;100.00;99759.81;5056990;28;20195;-47
2023/04/01 03:09:24;;;;;;;3.20;1.70;;;;;;;3.87;100.00;99759.81;5059702;28;20187;-49
2023/04/01 03:11:50;;;;;;;5.85;1.90;;;;;;;3.86;100.00;99751.88;5049590;28;20219;-47
2023/04/01 03:14:15;;;;;;;8.13;1.77;;;;;;;3.85;100.00;99758.09;5052790;28;20180;-48
2023/04/01 03:16:41;;;;;;;4.70;1.95;;;;;;;3.71;100.00;99767.28;5043689;28;20215;-48
2023/04/01 03:19:06;;;;;;;3.17;1.67;;;;;;;3.83;100.00;99783.78;5056814;28;20493;-49
2023/04/01 03:21:32;;;;;;;4.38;1.85;;;;;;;3.74;100.00;99768.09;5044225;28;20825;-49
2023/04/01 03:23:58;;;;;;;5.50;1.70;;;;;;;3.77;100.00;99789.25;5038149;28;20653;-47
2023/04/01 03:26:26;;;;;;;6.30;1.50;;;;;;;3.76;100.00;99776.88;5045520;28;20214;-49
2023/04/01 03:28:52;;;;;;;5.75;2.00;;;;;;;3.75;100.00;99775.16;5065746;28;20178;-48
2023/04/01 03:31:18;;;;;;;2.28;1.30;;;;;;;3.66;100.00;99752.44;5047131;28;20176;-48
2023/04/01 03:33:49;;;;;;;5.15;1.40;;;;;;;3.70;100.00;99784.09;5038493;28;20262;-48
2023/04/01 03:36:16;;;;;;;5.38;1.80;;;;;;;3.68;100.00;99777.97;5055092;28;20202;-49
2023/04/01 03:38:42;;;;;;;1.85;1.08;;;;;;;3.63;100.00;99803.72;5039550;28;20522;-46
2023/04/01 03:41:12;;;;;;;1.42;1.23;;;;;;;3.74;100.00;99797.25;5044836;28;20193;-49
2023/04/01 03:43:38;;;;;;;2.33;1.20;;;;;;;3.67;100.00;99789.50;5057334;28;20181;-46
2023/04/01 03:46:04;;;;;;;3.03;1.30;;;;;;;3.62;100.00;99795.81;5056291;28;20219;-46
2023/04/01 03:48:30;;;;;;;3.70;1.27;;;;;;;3.62;100.00;99796.66;5050951;28;20269;-46
2023/04/01 03:50:55;;;;;;;4.10;2.03;;;;;;;3.67;100.00;99808.03;5043089;28;20268;-46
2023/04/01 03:53:22;;;;;;;3.22;1.50;;;;;;;3.62;100.00;99807.25;5058576;28;20245;-48
2023/04/01 03:55:48;;;;;;;3.25;1.73;;;;;;;3.57;100.00;99809.19;5057483;28;20199;-48
2023/04/01 03:58:14;;;;;;;3.63;2.05;;;;;;;3.54;100.00;99809.22;5038035;28;20279;-48
2023/04/01 04:00:40;;;;;;;4.28;2.00;;;;;;;3.50;100.00;99813.75;5051833;28;20633;-47
2023/04/01 04:03:06;;;;;;;3.28;2.00;;;;;;;3.55;100.00;99803.03;5073814;28;20175;-48
2023/04/01 04:05:34;;;;;;;2.25;1.65;;;;;;;3.58;100.00;99810.91;5052255;28;20734;-45
2023/04/01 04:08:00;;;;;;;3.78;1.70;;;;;;;3.52;100.00;99816.38;5052899;28;20551;-48
2023/04/01 04:10:26;;;;;;;3.22;1.85;;;;;;;3.50;100.00;99839.38;5048220;28;20188;-49
2023/04/01 04:12:52;;;;;;;2.15;1.90;;;;;;;3.48;100.00;99836.75;5058898;28;20228;-46
2023/04/01 04:15:19;;;;;;;4.43;1.70;;;;;;;3.47;100.00;99844.72;5054716;28;20673;-48
2023/04/01 04:17:46;;;;;;;2.67;2.10;;;;;;;3.47;100.00;99829.72;5051524;28;20194;-42
2023/04/01 04:20:13;;;;;;;3.50;2.30;;;;;;;3.46;100.00;99835.06;5053719;28;20183;-45
2023/04/01 04:22:39;;;;;;;3.00;2.05;;;;;;;3.47;100.00;99840.31;5056767;28;20583;-43
2023/04/01 04:25:07;;;;;;;4.05;2.22;;;;;;;3.42;100.00;99850.16;5055284;28;20643;-44
2023/04/01 04:27:34;;;;;;;4.55;2.33;;;;;;;3.43;100.00;99854.56;5036168;28;20565;-44
2023/04/01 04:30:08;;;;;;;4.47;1.85;;;;;;;3.38;100.00;99835.25;5051772;28;20172;-44
2023/04/01 04:32:35;;;;;;;3.17;1.88;;;;;;;3.39;100.00;99846.69;5054166;28;20183;-45
2023/04/01 04:35:01;;;;;;;3.42;2.08;;;;;;;3.50;100.00;99852.63;5045559;28;20199;-44
2023/04/01 04:37:26;;;;;;;3.97;2.00;;;;;;;3.44;100.00;99845.69;5045766;28;20204;-45
2023/04/01 04:39:52;;;;;;;5.53;1.95;;;;;;;3.47;100.00;99850.88;5056501;28;20261;-43
2023/04/01 04:42:18;;;;;;;2.35;1.73;;;;;;;3.42;100.00;99852.78;5060518;28;20236;-43
2023/04/01 04:44:44;;;;;;;5.55;2.10;;;;;;;3.36;100.00;99887.34;5041979;28;20191;-44
2023/04/01 04:47:10;;;;;;;2.78;1.63;;;;;;;3.43;100.00;99851.91;5036141;28;20692;-44
2023/04/01 04:49:35;;;;;;;3.55;1.48;;;;;;;3.35;100.00;99872.41;5048221;28;20327;-44
2023/04/01 04:52:05;;;;;;;5.20;2.10;;;;;;;3.36;100.00;99870.59;5055816;28;20530;-41
2023/04/01 04:54:31;;;;;;;3.20;1.60;;;;;;;3.39;100.00;99878.47;5064907;28;20189;-45
2023/04/01 04:56:59;;;;;;;4.00;2.03;;;;;;;3.36;100.00;99891.78;5069435;28;20198;-47
2023/04/01 04:59:26;;;;;;;3.55;1.83;;;;;;;3.39;100.00;99883.75;5053449;28;20640;-46
2023/04/01 05:02:01;;;;;;;4.95;1.80;;;;;;;3.38;100.00;99876.75;5069454;28;20165;-44
2023/04/01 05:04:27;;;;;;;5.32;2.22;;;;;;;3.41;100.00;99905.78;5069212;28;20212;-46
2023/04/01 05:06:53;;;;;;;4.60;1.70;;;;;;;3.34;100.00;99889.16;5069315;28;20293;-45
2023/04/01 05:09:19;;;;;;;5.97;2.53;;;;;;;3.30;100.00;99896.34;5069512;28;20389;-43
2023/04/01 05:11:45;;;;;;;4.18;1.90;;;;;;;3.31;100.00;99910.44;5068823;28;20613;-43
2023/04/01 05:14:17;;;;;;;3.03;1.83;;;;;;;3.28;100.00;99908.75;5069007;28;20304;-44
2023/04/01 05:16:50;;;;;;;4.07;1.65;;;;;;;3.31;100.00;99907.78;5052602;28;20355;-43
2023/04/01 05:19:16;;;;;;;3.42;1.80;;;;;;;3.33;100.00;99894.53;5068578;28;20584;-46
2023/04/01 05:21:41;;;;;;;2.75;1.75;;;;;;;3.32;100.00;99895.41;5068387;28;20179;-46
2023/04/01 05:24:09;;;;;;;1.85;1.73;;;;;;;3.32;100.00;99908.66;5068704;28;20186;-45
2023/04/01 05:26:36;;;;;;;3.53;1.95;;;;;;;3.32;100.00;99908.66;5068381;28;20226;-45
2023/04/01 05:29:03;;;;;;;2.65;1.95;;;;;;;3.30;100.00;99914.88;5068012;28;20260;-43
2023/04/01 05:31:29;;;;;;;6.97;1.80;;;;;;;3.30;100.00;99933.41;5055514;28;20273;-42
2023/04/01 05:33:57;;;;;;;5.63;2.00;;;;;;;3.29;100.00;99913.09;5041635;28;20271;-41
2023/04/01 05:36:22;;;;;;;3.75;2.40;;;;;;;3.25;100.00;99922.03;5050632;28;20316;-41
2023/04/01 05:38:49;;;;;;;5.47;2.10;;;;;;;3.28;100.00;99921.97;5055110;28;20183;-44
2023/04/01 05:41:17;;;;;;;5.18;2.33;;;;;;;3.34;100.00;99930.66;5050742;28;20265;-42
2023/04/01 05:43:45;;;;;;;6.13;2.40;;;;;;;3.29;100.00;99929.00;5026302;28;20188;-41
2023/04/01 05:46:42;;;;;;;3.83;2.42;;;;;;;3.34;100.00;99934.19;5045162;28;20580;-43
2023/04/01 05:49:15;;;;;;;7.97;2.63;;;;;;;3.30;100.00;99946.63;5025521;28;20609;-45
2023/04/01 05:51:41;;;;;;;3.55;2.20;;;;;;;3.34;100.00;99946.56;5046135;28;20201;-44
2023/04/01 05:54:07;;;;;;;4.75;2.50;;;;;;;3.35;100.00;99932.44;5050867;28;20186;-42
2023/04/01 05:56:33;;;;;;;4.97;1.90;;;;;;;3.36;100.00;99947.38;5052491;28;20199;-42
2023/04/01 05:58:59;;;;;;;2.78;1.83;;;;;;;3.30;100.00;99956.31;5060444;28;20190;-45
2023/04/01 06:01:25;;;;;;;3.25;1.88;;;;;;;3.39;100.00;99956.16;5048873;28;20175;-41
2023/04/01 06:03:50;;;;;;;3.42;2.28;;;;;;;3.45;100.00;99952.47;5038024;28;20667;-42
2023/04/01 06:06:23;;;;;;;2.97;2.08;;;;;;;3.38;100.00;99961.47;5045407;28;20195;-41
2023/04/01 06:08:49;;;;;;;5.05;1.75;;;;;;;3.43;100.00;99960.47;5050814;28;20171;-46
2023/04/01 06:11:33;;;;;;;5.40;2.22;;;;;;;3.38;100.00;99951.75;5044386;28;20692;-45
2023/04/01 06:14:09;;;;;;;2.15;1.90;;;;;;;3.44;100.00;99979.88;5054808;28;20273;-46
2023/04/01 06:17:04;;;;;;;6.18;2.25;;;;;;;3.46;100.00;99988.66;5071409;28;20261;-45
2023/04/01 06:19:55;;;;;;;4.15;2.10;;;;;;;3.43;100.00;99986.94;5045746;28;20277;-47
2023/04/01 06:22:39;;;;;;;4.72;2.10;;;;;;;3.45;100.00;99984.25;5043772;28;20317;-45
2023/04/01 06:25:05;;;;;;;4.35;2.08;;;;;;;3.45;100.00;99971.00;5053485;28;20588;-45
2023/04/01 06:27:50;;;;;;;3.47;1.92;;;;;;;3.40;100.00;99996.72;5056295;28;20230;-47
2023/04/01 06:30:52;;;;;;;8.70;2.25;;;;;;;3.43;100.00;99986.06;5029365;28;20184;-45
2023/04/01 06:34:01;;;;;;;3.15;1.83;;;;;;;3.41;100.00;100001.09;5056156;28;20536;-44
2023/04/01 06:36:47;;;;;;;3.70;2.17;;;;;;;3.43;100.00;100002.84;5057224;28;20637;-45
2023/04/01 06:39:34;;;;;;;2.88;2.50;;;;;;;3.48;100.00;99998.28;5051964;28;20194;-45
2023/04/01 06:42:03;;;;;;;4.82;2.10;;;;;;;3.40;100.00;100005.53;5045295;28;20171;-46
2023/04/01 06:45:11;;;;;;;5.93;1.90;;;;;;;3.43;100.00;100007.22;5036718;28;20189;-45
2023/04/01 06:48:08;;;;;;;4.22;2.00;;;;;;;3.39;100.00;100026.75;5034013;28;20238;-46
2023/04/01 06:51:25;;;;;;;4.55;1.80;;;;;;;3.46;100.00;100023.94;5054762;22;20219;-48
2023/04/01 06:54:16;;;;;;;5.32;2.17;;;;;;;3.50;100.00;100028.25;5054335;28;20178;-46
2023/04/01 06:57:40;;;;;;;5.93;2.67;;;;;;;3.43;100.00;100034.59;5017382;28;20540;-47
2023/04/01 07:00:22;;;;;;;5.22;2.65;;;;;;;3.40;100.00;100032.00;5046108;28;20566;-47
2023/04/01 07:03:29;;;;;;;3.28;1.90;;;;;;;3.43;100.00;100031.97;5055699;28;20201;-46
2023/04/01 07:06:02;;;;;;;4.75;2.20;;;;;;;3.49;100.00;100041.53;5044335;28;20199;-45
2023/04/01 07:08:29;;;;;;;3.05;2.25;;;;;;;3.46;100.00;100044.25;5047821;28;20550;-47
2023/04/01 07:11:01;;;;;;;4.68;2.35;;;;;;;3.50;100.00;100051.25;5061141;28;20175;-47
2023/04/01 07:13:58;;;;;;;4.70;2.33;;;;;;;3.45;100.00;100059.25;5055188;28;20221;-43
2023/04/01 07:16:32;;;;;;;7.15;2.55;;;;;;;3.63;100.00;100052.72;5046087;28;20669;-47
2023/04/01 07:19:35;;;;;;;5.18;2.17;;;;;;;3.50;100.00;100069.78;5055226;28;20304;-44
2023/04/01 07:22:10;;;;;;;6.75;2.50;;;;;;;3.58;100.00;100069.59;5046608;28;20199;-42
2023/04/01 07:25:01;;;;;;;6.97;2.45;;;;;;;3.48;100.00;100069.78;5037384;28;20256;-44
2023/04/01 07:27:26;;;;;;;6.10;2.50;;;;;;;3.47;100.00;100067.16;5053467;28;20849;-45
2023/04/01 07:29:56;;;;;;;5.30;2.42;;;;;;;3.55;100.00;100072.31;5067789;28;20198;-43
2023/04/01 07:32:40;;;;;;;4.05;2.45;;;;;;;3.45;100.00;100084.88;5056067;28;20171;-45
2023/04/01 07:35:35;;;;;;;4.65;2.95;;;;;;;3.48;100.00;100084.81;5052142;28;20183;-42
2023/04/01 07:38:07;;;;;;;4.93;2.67;;;;;;;3.42;100.00;100088.47;5045882;28;20176;-42
2023/04/01 07:40:52;;;;;;;3.45;2.47;;;;;;;3.42;100.00;100090.25;5050895;28;20167;-44
2023/04/01 07:43:56;;;;;;;4.55;2.55;;;;;;;3.42;100.00;100140.56;5060454;28;20218;-43
2023/04/01 07:46:48;;;;;;;6.15;2.88;;;;;;;3.42;100.00;100106.13;5063611;28;20272;-45
2023/04/01 07:49:20;;;;;;;9.20;3.50;;;;;;;3.39;100.00;100109.72;5055386;28;20669;-42
2023/04/01 07:52:06;;;;;;;7.70;3.08;;;;;;;3.33;100.00;100109.84;5029021;28;20190;-43
2023/04/01 07:54:53;;;;;;;5.32;2.90;;;;;;;3.34;100.00;100111.56;5040791;28;20193;-41
2023/04/01 07:57:33;;;;;;;4.63;2.58;;;;;;;3.33;100.00;100133.66;5053533;28;20191;-45
2023/04/01 08:00:12;;;;;;;4.28;2.40;;;;;;;3.31;100.00;100146.06;5056904;28;20206;-46
2023/04/01 08:03:10;;;;;;;5.95;3.17;;;;;;;3.29;100.00;100142.56;5048309;28;20662;-46
2023/04/01 08:05:59;;;;;;;5.97;2.90;;;;;;;3.30;100.00;100136.34;5045056;28;20210;-48
2023/04/01 08:09:02;;;;;;;6.68;2.53;;;;;;;3.30;100.00;100144.28;5051441;28;20183;-45
2023/04/01 08:12:24;;;;;;;15.05;3.75;;;;;;;3.36;100.00;100143.31;5054212;28;20213;-47
2023/04/01 08:15:27;;;;;;;7.60;3.33;;;;;;;3.33;100.00;100167.22;4973059;28;20189;-48
2023/04/01 08:18:11;;;;;;;9.75;3.72;;;;;;;3.29;100.00;100158.44;5074209;28;20190;-47
2023/04/01 08:20:41;;;;;;;8.38;3.03;;;;;;;3.22;100.00;100154.19;5040496;28;20194;-48
2023/04/01 08:23:17;;;;;;;7.13;3.47;;;;;;;3.29;100.00;100174.34;5050808;28;20187;-47
2023/04/01 08:25:50;;;;;;;9.45;3.63;;;;;;;3.31;100.00;100167.25;5047573;28;20688;-48
2023/04/01 08:28:25;;;;;;;7.55;3.30;;;;;;;3.31;100.00;100169.88;5048590;28;20187;-47
2023/04/01 08:31:18;;;;;;;9.27;4.32;;;;;;;3.33;100.00;100169.88;5050951;28;20797;-47
2023/04/01 08:33:47;;;;;;;5.78;3.53;;;;;;;3.39;100.00;100175.00;5045580;28;20214;-48
2023/04/01 08:36:19;;;;;;;8.38;4.20;;;;;;;3.24;100.00;100192.97;5060131;28;20201;-47
2023/04/01 08:39:09;;;;;;;8.02;4.43;;;;;;;3.27;100.00;100189.38;5059213;28;20540;-47
2023/04/01 08:41:50;;;;;;;8.40;3.95;;;;;;;3.22;100.00;100189.47;5041821;28;20167;-46
2023/04/01 08:45:00;;;;;;;10.15;4.53;;;;;;;3.10;100.00;100205.56;5044485;28;20220;-48
2023/04/01 08:47:42;;;;;;;9.65;4.47;;;;;;;3.19;100.00;100186.00;5073438;28;20587;-48
2023/04/01 08:50:26;;;;;;;8.80;4.45;;;;;;;3.14;100.00;100217.84;5048721;28;20195;-48
2023/04/01 08:53:28;;;;;;;7.90;4.50;;;;;;;3.18;100.00;100226.59;5043009;28;20176;-47
2023/04/01 08:56:26;;;;;;;10.40;5.28;;;;;;;3.22;100.00;100230.94;5051715;28;20574;-45
2023/04/01 08:59:15;;;;;;;9.93;5.10;;;;;;;3.24;100.00;100213.28;5051541;28;20262;-47
2023/04/01 09:02:02;;;;;;;13.43;5.57;;;;;;;3.15;100.00;100230.19;5043817;28;20194;-45
2023/04/01 09:05:12;;;;;;;11.82;5.70;;;;;;;3.18;100.00;100232.78;5057973;28;20261;-47
2023/04/01 09:08:02;;;;;;;14.00;6.25;;;;;;;3.09;100.00;100232.94;5049078;28;20222;-46
2023/04/01 09:10:57;;;;;;;9.95;5.47;;;;;;;3.09;100.00;100247.03;5041770;28;20202;-45
2023/04/01 09:13:47;;;;;;;15.75;6.13;;;;;;;3.04;100.00;100259.47;5055985;28;20252;-48
2023/04/01 09:16:43;;;;;;;14.32;6.40;;;;;;;3.11;100.00;100254.09;5039103;28;20547;-44
2023/04/01 09:19:09;;;;;;;12.82;7.00;;;;;;;3.04;100.00;100251.53;5044800;28;20568;-47
2023/04/01 09:21:44;;;;;;;17.52;7.20;;;;;;;2.97;100.00;100246.34;5052855;28;20171;-47
2023/04/01 09:24:30;;;;;;;19.15;7.00;;;;;;;3.01;100.00;100248.94;5052365;28;20381;-46
2023/04/01 09:27:05;;;;;;;17.60;7.05;;;;;;;3.02;100.00;100271.88;5048735;28;20573;-49
2023/04/01 09:29:59;;;;;;;17.48;6.65;;;;;;;2.99;100.00;100268.38;5049664;28;20673;-48
2023/04/01 09:32:52;;;;;;;12.73;6.60;;;;;;;3.03;100.00;100273.59;5058363;28;20171;-47
2023/04/01 09:35:30;;;;;;;15.55;6.95;;;;;;;2.96;100.00;100277.25;5047723;28;20206;-47
2023/04/01 09:38:20;;;;;;;13.35;6.10;;;;;;;2.94;100.00;100288.75;5052956;28;20197;-47
2023/04/01 09:41:04;;;;;;;16.75;6.28;;;;;;;2.92;100.00;100304.66;5042103;28;20206;-46
2023/04/01 09:44:14;;;;;;;14.25;6.10;;;;;;;2.95;100.00;100304.63;5056586;28;20183;-45
2023/04/01 09:47:13;;;;;;;12.68;6.03;;;;;;;2.91;100.00;100318.78;5048058;28;20875;-47
2023/04/01 09:49:55;;;;;;;11.98;6.18;;;;;;;2.88;100.00;100329.41;5046304;28;20270;-47
2023/04/01 09:52:32;;;;;;;13.98;6.85;;;;;;;2.99;100.00;100345.13;5052893;28;20376;-46
2023/04/01 09:55:08;;;;;;;15.48;6.32;;;;;;;3.05;100.00;100321.22;5050476;28;20213;-49
2023/04/01 09:57:51;;;;;;;10.27;6.13;;;;;;;3.11;100.00;100307.91;5048726;28;20199;-49
2023/04/01 10:01:13;;;;;;;16.10;6.72;;;;;;;3.02;100.00;100316.84;4972634;28;20722;-46
2023/04/01 10:04:20;;;;;;;13.75;6.78;;;;;;;3.11;100.00;100352.88;4953786;28;20182;-46
2023/04/01 10:07:10;;;;;;;11.27;6.15;;;;;;;2.94;100.00;100333.75;5035381;28;20255;-47
2023/04/01 10:10:25;;;;;;;10.15;6.30;;;;;;;2.86;100.00;100324.16;5059941;28;20278;-49
2023/04/01 10:12:54;;;;;;;13.18;6.45;;;;;;;2.97;100.00;100337.19;5052370;28;20187;-49
2023/04/01 10:15:37;;;;;;;20.00;7.45;;;;;;;2.87;100.00;100351.47;5047447;28;20191;-48
2023/04/01 10:18:42;;;;;;;12.40;5.60;;;;;;;2.75;100.00;100341.06;5053096;28;20178;-48
2023/04/01 10:21:30;;;;;;;17.50;6.72;;;;;;;2.83;100.00;100347.13;5060226;28;20664;-47
2023/04/01 10:24:34;;;;;;;9.85;5.60;;;;;;;2.82;100.00;100351.56;5038320;28;20246;-48
2023/04/01 10:27:26;;;;;;;15.20;6.63;;;;;;;2.93;100.00;100355.78;5040704;28;20653;-46
2023/04/01 10:30:40;;;;;;;11.48;6.07;;;;;;;2.76;100.00;100364.00;5053852;28;20192;-48
2023/04/01 10:33:26;;;;;;;10.55;6.30;;;;;;;2.73;100.00;100391.31;5052270;28;20198;-48
2023/04/01 10:36:21;;;;;;;12.40;5.80;;;;;;;2.73;100.00;100367.53;5037668;28;20231;-48
2023/04/01 10:39:32;;;;;;;11.50;5.95;;;;;;;2.64;100.00;100357.06;5047557;28;20229;-47
2023/04/01 10:42:39;;;;;;;12.10;5.95;;;;;;;2.72;100.00;100372.84;5062971;28;20187;-49
2023/04/01 10:45:43;;;;;;;13.23;5.82;;;;;;;2.65;100.00;100367.66;5043003;28;20217;-48
2023/04/01 10:48:33;;;;;;;15.45;6.93;;;;;;;2.70;100.00;100383.44;5054931;28;20187;-46
2023/04/01 10:50:59;;;;;;;9.82;4.97;;;;;;;2.61;100.00;100359.78;5048367;28;20220;-47
2023/04/01 10:53:39;;;;;;;10.68;5.43;;;;;;;2.65;100.00;100382.66;5055209;28;20267;-49
2023/04/01 10:56:29;;;;;;;12.20;5.30;;;;;;;2.68;100.00;100378.16;5058804;28;20238;-48
2023/04/01 10:59:28;;;;;;;15.35;6.60;;;;;;;2.69;100.00;100394.94;5060258;28;20204;-48
2023/04/01 11:02:47;;;;;;;13.43;5.50;;;;;;;2.72;100.00;100392.25;5053298;28;20186;-45
2023/04/01 11:05:57;;;;;;;9.43;5.20;;;;;;;2.77;100.00;100386.88;5048355;28;20290;-45
2023/04/01 11:08:53;;;;;;;11.18;5.13;;;;;;;2.71;100.00;100398.41;5051508;28;20186;-46
2023/04/01 11:11:42;;;;;;;8.85;4.57;;;;;;;2.76;100.00;100398.38;5061760;28;20659;-47
2023/04/01 11:14:27;;;;;;;10.35;5.10;;;;;;;2.67;100.00;100408.16;5045997;28;20234;-45
2023/04/01 11:17:26;;;;;;;10.15;4.43;;;;;;;2.66;100.00;100408.19;5059720;28;20287;-47
2023/04/01 11:20:17;;;;;;;7.05;3.85;;;;;;;2.71;100.00;100409.00;5050611;28;20675;-46
2023/04/01 11:23:03;;;;;;;12.93;5.05;;;;;;;2.76;100.00;100420.41;5064246;28;20191;-46
2023/04/01 11:26:07;;;;;;;9.18;4.43;;;;;;;2.75;100.00;100405.41;5067456;28;20203;-43
2023/04/01 11:29:15;;;;;;;8.18;4.47;;;;;;;2.77;100.00;100430.09;5053594;28;20178;-44
2023/04/01 11:32:01;;;;;;;10.70;5.38;;;;;;;2.84;100.00;100434.41;5051043;28;20225;-46
2023/04/01 11:34:52;;;;;;;11.40;5.18;;;;;;;2.80;100.00;100422.13;5056297;28;20187;-44
2023/04/01 11:37:38;;;;;;;8.57;4.70;;;;;;;2.82;100.00;100433.56;5018940;28;20283;-45
2023/04/01 11:40:39;;;;;;;6.88;3.80;;;;;;;2.92;100.00;100438.72;5056572;28;20340;-44
2023/04/01 11:43:43;;;;;;;11.63;4.68;;;;;;;2.88;100.00;100449.34;5055851;28;20559;-46
2023/04/01 11:47:06;;;;;;;9.55;4.70;;;;;;;2.86;100.00;100463.47;5056100;28;20489;-42
2023/04/01 11:49:44;;;;;;;11.23;4.80;;;;;;;2.88;100.00;100474.91;5045191;28;20266;-44
2023/04/01 11:52:33;;;;;;;8.07;4.13;;;;;;;2.98;100.00;100444.81;5045895;28;20666;-45
2023/04/01 11:55:17;;;;;;;6.60;3.33;;;;;;;3.00;100.00;100458.91;5054651;28;20183;-42
2023/04/01 11:58:28;;;;;;;10.70;3.72;;;;;;;3.05;100.00;100474.72;5052741;28;20210;-46
2023/04/01 12:01:15;;;;;;;7.10;3.38;;;;;;;2.97;100.00;100452.75;5065402;28;20678;-44
2023/04/01 12:03:56;;;;;;;10.02;3.67;;;;;;;3.05;100.00;100457.06;5061989;28;20293;-44
2023/04/01 12:06:37;;;;;;;7.13;3.40;;;;;;;3.16;100.00;100488.69;5057655;28;20199;-42
2023/04/01 12:10:05;;;;;;;9.57;3.72;;;;;;;3.15;100.00;100472.81;5059212;28;20665;-44
2023/04/01 12:12:48;;;;;;;11.40;3.95;;;;;;;3.22;100.00;100471.84;5003126;28;20552;-47
2023/04/01 12:15:36;;;;;;;6.63;3.80;;;;;;;3.21;100.00;100481.53;5052026;28;20282;-47
2023/04/01 12:18:31;;;;;;;10.25;3.70;;;;;;;3.13;100.00;100474.59;5053140;28;20187;-44
2023/04/01 12:21:07;;;;;;;9.00;4.03;;;;;;;3.13;100.00;100482.53;5056185;28;20183;-46